Home > Products > Valid Products > TAF

000
FTUS43 KLSX 180500
TAFSUS
TAF
KSUS 180533Z 1806/1906 06005KT P6SM OVC060
     FM180900 08004KT 6SM -SN OVC035
     FM181300 09004KT 2SM -SN BR OVC010
     FM181800 09004KT 5SM -DZ BR OVC007
     FM182300 06003KT 5SM BR OVC009=



000
FTUS43 KLSX 180500
TAFCOU
TAF
KCOU 180533Z 1806/1906 09004KT 6SM -SN OVC040
     FM181000 06005KT 2SM -SN BR OVC007
     FM181300 06005KT 5SM -SN BR OVC007
     FM181600 07005KT 5SM -DZ BR OVC008
     FM182100 07005KT 5SM BR OVC008=



000
FTUS43 KLSX 180500
TAFSTL
TAF
KSTL 180533Z 1806/1912 05005KT P6SM OVC060
     FM181000 08004KT 6SM -SN OVC035
     FM181400 09004KT 2SM -SN BR OVC010
     FM181800 09004KT 5SM -DZ BR OVC007
     FM182300 06003KT 5SM BR OVC009=



000
FTUS43 KLSX 180500
TAFUIN
TAF
KUIN 180533Z 1806/1906 06005KT P6SM OVC080
     FM181300 07004KT 6SM -SN OVC050
     FM181500 VRB04KT 4SM -SN BR OVC025
     FM182100 07003KT 5SM -DZ BR OVC010
     FM190000 07003KT 5SM BR OVC008=



000
FTUS43 KLSX 180300 AAA
TAFSTL
TAF AMD
KSTL 180308Z 1803/1906 05005KT P6SM OVC080
     FM181100 08004KT 6SM -SN OVC040
     FM181400 09004KT 1SM -SN BR OVC010
     FM181800 09004KT 5SM -DZ BR OVC007
     FM182300 08003KT 5SM BR OVC009=



000
FTUS43 KLSX 172300
TAFUIN
TAF
KUIN 172339Z 1800/1824 VRB04KT P6SM SCT012 BKN120
     FM180900 06005KT P6SM OVC080
     FM181500 07004KT 6SM -SN OVC050
     FM181800 VRB04KT 4SM -SN BR OVC025=



000
FTUS43 KLSX 172300
TAFSUS
TAF
KSUS 172339Z 1800/1824 VRB03KT P6SM OVC080
     FM181000 VRB03KT 6SM -SN OVC040
     FM181400 09004KT 1SM -SN BR OVC010
     FM181800 09004KT 5SM -DZ BR OVC007=



000
FTUS43 KLSX 172300
TAFSTL
TAF
KSTL 172339Z 1800/1906 VRB04KT P6SM OVC080
     FM181100 08004KT 6SM -SN OVC040
     FM181400 09004KT 1SM -SN BR OVC010
     FM181800 09004KT 5SM -DZ BR OVC007
     FM182300 08003KT 5SM BR OVC009=



000
FTUS43 KLSX 172300
TAFCOU
TAF
KCOU 172339Z 1800/1824 VRB04KT P6SM OVC080
     FM180600 09004KT 6SM -SN OVC040
     FM180900 06005KT 1SM -SN BR OVC007
     FM181300 06005KT 5SM -SN BR OVC007
     FM181600 07005KT 5SM -DZ BR OVC008=



000
FTUS43 KLSX 172000 AAA
TAFSTL
TAF AMD
KSTL 172053Z 1721/1824 32005KT P6SM FEW025 SCT150 BKN250
     FM180000 VRB04KT P6SM OVC080
     FM181100 08004KT 6SM -SN OVC040
     FM181400 09004KT 1SM -SN BR OVC012
     FM181600 09004KT 5SM -DZ BR OVC007=



000
FTUS43 KLSX 171700
TAFSTL
TAF
KSTL 171720Z 1718/1824 28007KT P6SM SCT020 SCT100
     FM180000 VRB04KT P6SM OVC080
     FM181000 08004KT 6SM -SN OVC040
     FM181400 09004KT 1SM -SN BR OVC012
     FM181700 09004KT 5SM -DZ BR OVC007=



000
FTUS43 KLSX 171700
TAFUIN
TAF
KUIN 171720Z 1718/1818 32006KT P6SM SCT012 BKN120
      TEMPO 1718/1719 BKN012
     FM180900 06005KT P6SM OVC080
     FM181500 07004KT 6SM -SN OVC050=



000
FTUS43 KLSX 171700
TAFSUS
TAF
KSUS 171720Z 1718/1818 30005KT P6SM SCT020 SCT100
     FM180000 VRB03KT P6SM OVC080
     FM181000 VRB03KT 6SM -SN OVC040
     FM181400 09004KT 1SM -SN BR OVC012=



000
FTUS43 KLSX 171700
TAFCOU
TAF
KCOU 171720Z 1718/1818 VRB04KT P6SM SCT080
     FM180600 09004KT 6SM -SN OVC040
     FM180900 06005KT 1SM -SN BR OVC007
     FM181300 06005KT 5SM -SN BR OVC007=



000
FTUS43 KLSX 171400 AAB
TAFSTL
TAF AMD
KSTL 171456Z 1715/1818 28005KT P6SM BKN019
     FM171600 28007KT P6SM SCT020 BKN100
     FM180000 VRB04KT P6SM OVC080
     FM181000 08004KT 6SM -SN OVC040
     FM181400 09004KT 1SM -SN BR OVC012=



000
FTUS43 KLSX 171300 AAA
TAFSTL
TAF AMD
KSTL 171358Z 1714/1818 29007KT P6SM BKN019
     FM171500 30007KT P6SM BKN100
     FM180000 VRB04KT P6SM OVC080
     FM181000 08004KT 6SM -SN OVC040
     FM181400 09004KT 1SM -SN BR OVC012=



000
FTUS43 KLSX 171100
TAFUIN
TAF
KUIN 171135Z 1712/1812 32007KT P6SM OVC018
     FM171600 32006KT P6SM BKN120
     FM180900 06005KT P6SM OVC080=



000
FTUS43 KLSX 171100
TAFSTL
TAF
KSTL 171135Z 1712/1818 30007KT P6SM OVC020
     FM171400 30007KT P6SM BKN100
     FM180000 VRB04KT P6SM OVC080
     FM181000 08004KT 6SM -SN OVC040
     FM181400 09004KT 1SM -SN BR OVC012=



000
FTUS43 KLSX 171100
TAFCOU
TAF
KCOU 171135Z 1712/1812 33005KT P6SM BKN150
     FM172100 VRB03KT P6SM OVC080
     FM180600 09004KT 6SM -SN OVC040
     FM180900 10005KT 1SM -SN BR OVC007=



000
FTUS43 KLSX 171100
TAFSUS
TAF
KSUS 171135Z 1712/1812 29007KT P6SM OVC020
     FM171400 30005KT P6SM BKN100
     FM180000 VRB03KT P6SM OVC080
     FM181000 VRB03KT 6SM -SN OVC040=



000
FTUS43 KLSX 170900 AAA
TAFSTL
TAF AMD
KSTL 170918Z 1709/1812 30012KT P6SM OVC019
     FM171400 30007KT P6SM BKN100
     FM172200 VRB05KT P6SM OVC080
     FM180900 08006KT 6SM -SN OVC060=



000
FTUS43 KLSX 170900 AAA
TAFSTL
TAF AMD
KSTL 170918Z 1709/1812 30012KT P6SM OVC019
     FM171400 30007KT P6SM BKN100
     FM172200 VRB05KT P6SM OVC080
     FM180900 08006KT 6SM -SN OVC060=



000
FTUS43 KLSX 170500
TAFSTL
TAF
KSTL 170527Z 1706/1812 30012KT P6SM OVC020
     FM171400 30007KT P6SM BKN100
     FM172200 VRB05KT P6SM OVC080
     FM180900 08006KT 6SM -SN OVC060=



000
FTUS43 KLSX 170500
TAFSUS
TAF
KSUS 170527Z 1706/1806 30008KT P6SM OVC020
     FM171400 30007KT P6SM BKN100
     FM172100 VRB05KT P6SM OVC080=



000
FTUS43 KLSX 170500
TAFCOU
TAF
KCOU 170527Z 1706/1806 31008KT P6SM SCT200
      TEMPO 1706/1707 BKN020
     FM171800 VRB03KT P6SM BKN100
     FM180200 07004KT P6SM OVC060=



000
FTUS43 KLSX 170500
TAFUIN
TAF
KUIN 170527Z 1706/1806 32010KT P6SM OVC018
     FM171400 31006KT P6SM BKN100
     FM172100 VRB03KT P6SM BKN100=



000
FTUS43 KLSX 170300 AAA
TAFSTL
TAF AMD
KSTL 170309Z 1703/1806 30012KT P6SM OVC020
     FM170900 30007KT P6SM BKN200
     FM180000 VRB05KT P6SM BKN080=



000
FTUS43 KLSX 162300
TAFSUS
TAF
KSUS 162335Z 1700/1724 30010KT P6SM OVC020
     FM170800 30007KT P6SM BKN200=



000
FTUS43 KLSX 162300
TAFUIN
TAF
KUIN 162335Z 1700/1724 31012KT P6SM OVC018
     FM170600 31009KT P6SM BKN200
     FM172100 VRB03KT P6SM BKN100=



000
FTUS43 KLSX 162300
TAFCOU
TAF
KCOU 162335Z 1700/1724 29008KT P6SM OVC018
     FM170600 31006KT P6SM BKN200
     FM171800 VRB03KT P6SM BKN100=



000
FTUS43 KLSX 162300
TAFSTL
TAF
KSTL 162335Z 1700/1806 30012KT P6SM OVC020
     FM170800 30007KT P6SM BKN200
     FM180000 VRB05KT P6SM BKN080=



000
FTUS43 KLSX 162100 AAA
TAFUIN
TAF AMD
KUIN 162145Z 1622/1718 30015G24KT P6SM OVC020
     FM170000 30012KT P6SM BKN025
     FM170800 31009KT P6SM BKN200=



000
FTUS43 KLSX 162000 AAA
TAFSTL
TAF AMD
KSTL 162052Z 1621/1724 29017G27KT P6SM OVC019
     FM162200 30014G24KT P6SM OVC025
     FM170000 30011KT P6SM OVC025
     FM170800 30008KT P6SM BKN200=



000
FTUS43 KLSX 162000 AAA
TAFSUS
TAF AMD
KSUS 162016Z 1620/1718 30013G22KT P6SM OVC025
     FM170000 30010KT P6SM OVC025
     FM170800 30005KT P6SM BKN200=



000
FTUS43 KLSX 161900 AAA
TAFCOU
TAF AMD
KCOU 161923Z 1619/1718 30014G24KT P6SM OVC020
     FM170000 29010KT P6SM OVC025
     FM170600 31006KT P6SM BKN200=



000
FTUS43 KLSX 161700
TAFUIN
TAF
KUIN 161720Z 1618/1718 30018G28KT P6SM OVC012
     FM162100 30015G24KT P6SM OVC025
     FM170000 30012KT P6SM OVC025
     FM170800 31009KT P6SM BKN200=



000
FTUS43 KLSX 161700
TAFSUS
TAF
KSUS 161720Z 1618/1718 29017G27KT P6SM OVC012
     FM162200 30013G22KT P6SM OVC025
     FM170000 30010KT P6SM OVC025
     FM170800 30005KT P6SM BKN200=



000
FTUS43 KLSX 161700
TAFCOU
TAF
KCOU 161720Z 1618/1718 29016G26KT P6SM OVC012
     FM161900 30014G24KT P6SM OVC025
     FM170000 29010KT P6SM OVC025
     FM170600 31006KT P6SM BKN200=



000
FTUS43 KLSX 161700
TAFSTL
TAF
KSTL 161720Z 1618/1724 29017G27KT P6SM OVC012
     FM162200 30014G24KT P6SM OVC025
     FM170000 30011KT P6SM OVC025
     FM170800 30008KT P6SM BKN200=



000
FTUS43 KLSX 161400 AAA
TAFSUS
TAF AMD
KSUS 161451Z 1615/1712 29017G27KT P6SM OVC012
     FM162200 30013G22KT P6SM OVC025
     FM170000 30009KT P6SM OVC025
     FM170600 30005KT P6SM BKN250=



000
FTUS43 KLSX 161400 AAA
TAFSTL
TAF AMD
KSTL 161450Z 1615/1718 29017G27KT P6SM OVC012
     FM162200 30014G24KT P6SM OVC025
     FM170000 30010KT P6SM OVC025
     FM170600 30008KT P6SM BKN250=



000
FTUS43 KLSX 161100
TAFSUS
TAF
KSUS 161135Z 1612/1712 29017G27KT P6SM OVC012
      TEMPO 1612/1614 -RA
     FM162200 30013G22KT P6SM OVC025
     FM170000 30009KT P6SM OVC025
     FM170600 30005KT P6SM BKN250=



000
FTUS43 KLSX 161100
TAFUIN
TAF
KUIN 161135Z 1612/1712 30018G28KT P6SM OVC012
      TEMPO 1612/1614 5SM -RA BR OVC008
     FM162100 30015G24KT P6SM OVC025
     FM170000 30012KT P6SM OVC025
     FM170400 31009KT P6SM BKN250=



000
FTUS43 KLSX 161100
TAFCOU
TAF
KCOU 161135Z 1612/1712 29016G26KT P6SM OVC012
      TEMPO 1612/1614 OVC008
     FM161900 30014G24KT P6SM OVC025
     FM170000 29010KT P6SM OVC025
     FM170600 31006KT P6SM BKN250=



000
FTUS43 KLSX 161100
TAFSTL
TAF
KSTL 161135Z 1612/1718 29017G27KT P6SM OVC012
      TEMPO 1612/1614 -RA
     FM162200 30014G24KT P6SM OVC025
     FM170000 30010KT P6SM OVC025
     FM170600 30008KT P6SM BKN250=



000
FTUS43 KLSX 161000 AAB
TAFCOU
TAF AMD
KCOU 161018Z 1610/1706 28015G25KT P6SM OVC008
      TEMPO 1610/1612 -RA
     FM161200 29016G26KT P6SM OVC012
     FM161800 30014G24KT P6SM OVC025=



000
FTUS43 KLSX 160900 AAA
TAFSUS
TAF AMD
KSUS 160921Z 1609/1706 26015G25KT P6SM OVC015
      TEMPO 1609/1613 -RA
     FM161300 29015G25KT P6SM OVC015
     FM161900 29012G20KT P6SM OVC025=



000
FTUS43 KLSX 160900 AAB
TAFSTL
TAF AMD
KSTL 160921Z 1609/1712 26017G25KT P6SM OVC016
      TEMPO 1609/1613 -RA
     FM161300 29016G26KT P6SM OVC015
     FM162100 30014G24KT P6SM BKN025=



000
FTUS43 KLSX 160800 AAA
TAFUIN
TAF AMD
KUIN 160811Z 1608/1706 29016G26KT P6SM VCSH OVC007
      TEMPO 1608/1610 3SM -RA BR OVC005
     FM161200 30015G25KT P6SM OVC007
     FM161600 30014G24KT P6SM OVC015
     FM162100 30012G24KT P6SM OVC025=



000
FTUS43 KLSX 160700 AAA
TAFSTL
TAF AMD
KSTL 160707Z 1607/1712 26015G25KT P6SM OVC016
      TEMPO 1607/1610 -RA
     FM161200 29016G26KT P6SM OVC015
     FM162100 30014G24KT P6SM BKN025=



000
FTUS43 KLSX 160700 AAA
TAFCOU
TAF AMD
KCOU 160704Z 1607/1706 26015G25KT P6SM SCT007 OVC012
      TEMPO 1607/1610 4SM -RA BR OVC007
     FM161000 29016G26KT P6SM OVC012
     FM161800 30014G24KT P6SM OVC025=



000
FTUS43 KLSX 160500
TAFCOU
TAF
KCOU 160540Z 1606/1706 25015G25KT P6SM VCSH OVC012
     FM160900 29016G26KT P6SM OVC012
     FM161800 30014G24KT P6SM OVC025=



000
FTUS43 KLSX 160500
TAFUIN
TAF
KUIN 160540Z 1606/1706 29016G26KT P6SM VCSH OVC007
      TEMPO 1606/1609 5SM -RA BR
     FM161200 30015G25KT P6SM OVC007
     FM161600 30014G24KT P6SM OVC015
     FM162100 30012G24KT P6SM OVC025=



000
FTUS43 KLSX 160500
TAFSTL
TAF
KSTL 160540Z 1606/1712 26015G25KT P6SM BKN020 OVC040
     FM160800 27015G25KT P6SM OVC015
     FM161200 29016G26KT P6SM OVC015
     FM162100 30014G24KT P6SM BKN025=



000
FTUS43 KLSX 160500
TAFSUS
TAF
KSUS 160540Z 1606/1706 25015G25KT P6SM OVC015
     FM161200 29015G25KT P6SM OVC015
     FM161900 29012G20KT P6SM OVC025=



000
FTUS43 KLSX 160300 AAA
TAFSUS
TAF AMD
KSUS 160318Z 1603/1624 25018G26KT P6SM VCSH OVC025
     FM160400 25015G25KT P6SM OVC015
     FM161200 29015G25KT P6SM OVC015
     FM161900 29012G20KT P6SM OVC025=



000
FTUS43 KLSX 160300 AAA
TAFSTL
TAF AMD
KSTL 160306Z 1603/1706 25018G28KT P6SM VCSH OVC025
     FM160400 26015G25KT P6SM OVC015
     FM161200 29016G26KT P6SM OVC015
     FM162100 30014G24KT P6SM BKN025=



000
FTUS43 KLSX 160100 AAA
TAFUIN
TAF AMD
KUIN 160158Z 1602/1624 23013G23KT P6SM VCSH OVC010
     FM160900 29016G26KT P6SM OVC007
     FM161600 30014G24KT P6SM OVC015
     FM162100 30012G24KT P6SM OVC025=



000
FTUS43 KLSX 152300
TAFSUS
TAF
KSUS 152330Z 1600/1624 24012G22KT P6SM VCSH BKN025
     FM160130 25014G24KT P6SM OVC015
     FM161200 29015G25KT P6SM OVC015=



000
FTUS43 KLSX 152300
TAFCOU
TAF
KCOU 152330Z 1600/1624 25015G25KT P6SM VCSH OVC012
     FM160900 29016G26KT P6SM OVC012
     FM161800 30014G24KT P6SM OVC025=



000
FTUS43 KLSX 152300
TAFSTL
TAF
KSTL 152330Z 1600/1706 23013G23KT P6SM VCSH BKN025
     FM160200 25015G25KT P6SM OVC015
     FM161200 29016G26KT P6SM OVC015
     FM162100 30014G24KT P6SM BKN025=



000
FTUS43 KLSX 152300
TAFUIN
TAF
KUIN 152330Z 1600/1624 22014G24KT P6SM VCSH SCT010 OVC020
     FM160300 23013G23KT P6SM VCSH OVC010
     FM160900 29016G26KT P6SM OVC007
     FM161600 30014G24KT P6SM OVC015
     FM162100 30012G24KT P6SM OVC025=



000
FTUS43 KLSX 152200 AAC
TAFUIN
TAF AMD
KUIN 152224Z 1522/1618 16013G23KT P6SM BKN006 OVC012
      TEMPO 1522/1524 4SM -SHRA BR SCT006
     FM160000 22014G24KT P6SM VCSH OVC015
     FM160300 23013G23KT P6SM OVC012
     FM160900 29016G26KT P6SM OVC010=



000
FTUS43 KLSX 152100 AAB
TAFUIN
TAF AMD
KUIN 152125Z 1521/1618 15013G23KT 5SM BR OVC008
     FM152200 16013G23KT P6SM SCT010 BKN020
      TEMPO 1522/1524 4SM -SHRA BR
     FM160000 18014G24KT P6SM VCSH BKN015
     FM160300 23013G23KT P6SM OVC012
     FM160900 29016G26KT P6SM OVC010=



000
FTUS43 KLSX 152100 AAA
TAFCOU
TAF AMD
KCOU 152120Z 1521/1618 23016G26KT P6SM BKN020
      TEMPO 1522/1524 5SM -DZ BR OVC010
     FM160000 25015G25KT P6SM OVC012
     FM160900 29016G26KT P6SM OVC012=



000
FTUS43 KLSX 152100 AAA
TAFSUS
TAF AMD
KSUS 152114Z 1521/1618 15012G22KT P6SM SCT010 BKN030
      TEMPO 1522/1524 4SM -SHRA BR
     FM160000 20012G22KT P6SM VCSH BKN025
     FM160200 25014G24KT P6SM OVC015
     FM161200 29015G25KT P6SM OVC015=



000
FTUS43 KLSX 152100 AAA
TAFSUS
TAF AMD
KSUS 152114Z 1521/1618 15012G22KT P6SM SCT010 BKN030
      TEMPO 1522/1524 4SM -SHRA BR
     FM160000 20012G22KT P6SM VCSH BKN025
     FM160200 25014G24KT P6SM OVC015
     FM161200 29015G25KT P6SM OVC015=



000
FTUS43 KLSX 152100 AAB
TAFSTL
TAF AMD
KSTL 152113Z 1521/1624 15013G23KT P6SM SCT010 BKN030
      TEMPO 1522/1524 4SM -SHRA BR
     FM160000 20013G23KT P6SM VCSH BKN025
     FM160200 25015G25KT P6SM OVC015
     FM161200 29016G26KT P6SM OVC015
     FM162100 30014G24KT P6SM BKN030=



000
FTUS43 KLSX 152100 AAB
TAFSTL
TAF AMD
KSTL 152113Z 1521/1624 15013G23KT P6SM SCT010 BKN030
      TEMPO 1522/1524 4SM -SHRA BR
     FM160000 20013G23KT P6SM VCSH BKN025
     FM160200 25015G25KT P6SM OVC015
     FM161200 29016G26KT P6SM OVC015
     FM162100 30014G24KT P6SM BKN030=



000
FTUS43 KLSX 152000 AAA
TAFUIN
TAF AMD
KUIN 152001Z 1520/1618 15013G23KT 5SM BR OVC008
      TEMPO 1520/1522 2SM -DZ BR
     FM152200 16014G24KT P6SM VCSH OVC012
     FM160300 23013G23KT P6SM OVC012
     FM160900 29016G26KT P6SM OVC010=



000
FTUS43 KLSX 152000 AAA
TAFUIN
TAF AMD
KUIN 152001Z 1520/1618 15013G23KT 5SM BR OVC008
      TEMPO 1520/1522 2SM -DZ BR
     FM152200 16014G24KT P6SM VCSH OVC012
     FM160300 23013G23KT P6SM OVC012
     FM160900 29016G26KT P6SM OVC010=



000
FTUS43 KLSX 151900 AAA
TAFSTL
TAF AMD
KSTL 151956Z 1520/1624 15014G24KT 5SM BR OVC007
      TEMPO 1520/1522 1SM -DZ BR
     FM152200 16014G24KT P6SM VCSH BKN015
     FM160300 24014G24KT P6SM OVC015
     FM161200 29016G26KT P6SM OVC015
     FM162100 30014G24KT P6SM BKN030=



000
FTUS43 KLSX 151700
TAFUIN
TAF
KUIN 151739Z 1518/1618 15015G25KT P6SM OVC009
     FM152100 16014G24KT P6SM VCSH OVC012
     FM160300 23013G23KT P6SM OVC012
     FM160900 29016G26KT P6SM OVC010=



000
FTUS43 KLSX 151700
TAFSTL
TAF
KSTL 151739Z 1518/1624 14017G27KT P6SM OVC009
     FM152100 16014G24KT P6SM VCSH BKN015
     FM160300 24014G24KT P6SM OVC015
     FM161200 29016G26KT P6SM OVC015
     FM162100 30014G24KT P6SM BKN030=



000
FTUS43 KLSX 151700
TAFSUS
TAF
KSUS 151739Z 1518/1618 14016G26KT P6SM OVC009
     FM152100 16013G23KT P6SM VCSH BKN015
     FM160300 24013G23KT P6SM OVC015
     FM161200 29015G25KT P6SM OVC015=



000
FTUS43 KLSX 151700
TAFCOU
TAF
KCOU 151739Z 1518/1618 16015G25KT P6SM BKN020
      TEMPO 1518/1521 5SM -SHRA
     FM160000 24015G25KT P6SM OVC020
     FM160900 29016G26KT P6SM OVC015=



000
FTUS43 KLSX 151500 AAB
TAFSUS
TAF AMD
KSUS 151543Z 1516/1612 15014G24KT P6SM OVC009
      TEMPO 1516/1517 5SM -RA BR
     FM151800 16014G24KT P6SM VCSH OVC015
     FM160200 25015KT P6SM OVC025
     FM160900 29014G22KT P6SM OVC015=



000
FTUS43 KLSX 151500 AAB
TAFSTL
TAF AMD
KSTL 151540Z 1516/1618 15015G25KT 5SM BR OVC009
      TEMPO 1516/1517 3SM -RA BR OVC006
     FM151800 16015G25KT P6SM VCSH OVC015
     FM160200 25015KT P6SM OVC025
     FM160900 29014G22KT P6SM OVC015=



000
FTUS43 KLSX 151400 AAA
TAFSTL
TAF AMD
KSTL 151400Z 1514/1618 15015G25KT P6SM OVC012
      TEMPO 1514/1515 5SM -RA BR OVC007
     FM151500 15015KT P6SM BKN015
     FM151800 17015KT P6SM VCSH BKN025
     FM160200 25015KT P6SM OVC025
     FM160900 29014G22KT P6SM OVC015=



000
FTUS43 KLSX 151300 AAA
TAFSUS
TAF AMD
KSUS 151315Z 1513/1612 14012G20KT P6SM OVC009
     FM151500 15015KT P6SM BKN015
     FM151800 15015KT P6SM VCSH BKN025
     FM160200 25015KT P6SM OVC025
     FM160900 29014G22KT P6SM OVC015=



000
FTUS43 KLSX 151300 AAA
TAFUIN
TAF AMD
KUIN 151305Z 1513/1612 15014G22KT P6SM OVC006
     FM151900 18012KT P6SM VCSH SCT007 BKN015
     FM160200 25015G23KT P6SM OVC012
     FM160800 29015G25KT P6SM OVC012=



000
FTUS43 KLSX 151300 AAA
TAFCOU
TAF AMD
KCOU 151301Z 1513/1612 15013KT P6SM BKN015
     FM151700 20014G22KT P6SM VCSH BKN025
     FM152300 25015G23KT P6SM OVC025
     FM160700 29015G25KT P6SM OVC015=



000
FTUS43 KLSX 151100
TAFCOU
TAF
KCOU 151120Z 1512/1612 14014G22KT P6SM SCT007 OVC015
     FM151300 13013KT P6SM SCT015
     FM151800 20014G22KT P6SM VCSH BKN025
     FM152300 25015G23KT P6SM OVC025
     FM160700 29015G25KT P6SM OVC015=



000
FTUS43 KLSX 151100
TAFSTL
TAF
KSTL 151120Z 1512/1618 15011KT 4SM -RA OVC012
      TEMPO 1512/1514 2SM RA OVC007
     FM151500 15015KT P6SM BKN015
     FM151800 17015KT P6SM VCSH BKN025
     FM160200 25015KT P6SM OVC025
     FM160900 29014G22KT P6SM OVC015=



000
FTUS43 KLSX 151100
TAFSUS
TAF
KSUS 151120Z 1512/1612 15008KT 4SM -RA OVC025
      TEMPO 1512/1513 2SM RA OVC009
     FM151500 15015KT P6SM BKN015
     FM151800 15015KT P6SM VCSH BKN025
     FM160200 25015KT P6SM OVC025
     FM160900 29014G22KT P6SM OVC015=



000
FTUS43 KLSX 151100
TAFUIN
TAF
KUIN 151120Z 1512/1612 15011KT 3SM -RA OVC025
      TEMPO 1512/1513 2SM RA OVC006
     FM151400 15014KT P6SM OVC007
     FM151900 18012KT P6SM VCSH SCT007 BKN015
     FM160200 25015G23KT P6SM OVC012
     FM160800 29015G25KT P6SM OVC012=



000
FTUS43 KLSX 150800 AAA
TAFSTL
TAF AMD
KSTL 150856Z 1509/1612 15012KT P6SM BKN009
     FM151030 15011KT 4SM -RA OVC012
      TEMPO 1512/1514 2SM RA OVC009
     FM151500 15015KT P6SM BKN015
     FM151800 17015KT P6SM VCSH BKN025=



000
FTUS43 KLSX 150700 AAA
TAFSUS
TAF AMD
KSUS 150704Z 1507/1606 15005KT P6SM BKN012
     FM151000 15008KT 4SM -RA OVC018
      TEMPO 1512/1514 2SM RA OVC009
     FM151500 15015KT P6SM BKN015
     FM151800 15015KT P6SM VCSH BKN025=



    US Dept of Commerce
    National Oceanic and Atmospheric Administration
    National Weather Service
    1325 East West Highway
    Silver Spring, MD 20910
    Page Author: NWS Internet Services Team
Disclaimer
Information Quality
Credits
Glossary
Privacy Policy
Freedom of Information Act (FOIA)
About Us
Career Opportunities